sensor_id;sensor_type;location;lat;lon;timestamp;P1;durP1;ratioP1;P2;durP2;ratioP2
6292;SDS011;3179;54.350;10.102;2023-09-08T00:00:59;4.10;;;3.80;;
6292;SDS011;3179;54.350;10.102;2023-09-08T00:03:26;4.23;;;3.90;;
6292;SDS011;3179;54.350;10.102;2023-09-08T00:05:53;4.17;;;3.87;;
6292;SDS011;3179;54.350;10.102;2023-09-08T00:08:20;4.73;;;3.50;;
6292;SDS011;3179;54.350;10.102;2023-09-08T00:10:46;3.60;;;3.30;;
6292;SDS011;3179;54.350;10.102;2023-09-08T00:13:15;4.50;;;3.63;;
6292;SDS011;3179;54.350;10.102;2023-09-08T00:15:41;3.97;;;3.67;;
6292;SDS011;3179;54.350;10.102;2023-09-08T00:18:08;3.93;;;3.63;;
6292;SDS011;3179;54.350;10.102;2023-09-08T00:20:36;3.90;;;3.60;;
6292;SDS011;3179;54.350;10.102;2023-09-08T00:23:03;4.50;;;3.73;;
6292;SDS011;3179;54.350;10.102;2023-09-08T00:25:30;5.20;;;4.03;;
6292;SDS011;3179;54.350;10.102;2023-09-08T00:27:57;4.93;;;4.53;;
6292;SDS011;3179;54.350;10.102;2023-09-08T00:30:25;4.30;;;3.90;;
6292;SDS011;3179;54.350;10.102;2023-09-08T00:32:52;5.83;;;4.70;;
6292;SDS011;3179;54.350;10.102;2023-09-08T00:35:18;3.53;;;3.23;;
6292;SDS011;3179;54.350;10.102;2023-09-08T00:37:45;4.40;;;4.00;;
6292;SDS011;3179;54.350;10.102;2023-09-08T00:40:12;5.23;;;3.97;;
6292;SDS011;3179;54.350;10.102;2023-09-08T00:42:39;4.30;;;3.90;;
6292;SDS011;3179;54.350;10.102;2023-09-08T00:45:06;4.40;;;3.80;;
6292;SDS011;3179;54.350;10.102;2023-09-08T00:47:34;3.50;;;3.27;;
6292;SDS011;3179;54.350;10.102;2023-09-08T00:50:01;6.07;;;4.00;;
6292;SDS011;3179;54.350;10.102;2023-09-08T00:52:29;9.43;;;3.53;;
6292;SDS011;3179;54.350;10.102;2023-09-08T00:54:57;5.03;;;3.60;;
6292;SDS011;3179;54.350;10.102;2023-09-08T00:57:24;4.30;;;3.57;;
6292;SDS011;3179;54.350;10.102;2023-09-08T00:59:52;4.00;;;3.60;;
6292;SDS011;3179;54.350;10.102;2023-09-08T01:02:20;4.67;;;4.27;;
6292;SDS011;3179;54.350;10.102;2023-09-08T01:04:48;4.13;;;3.70;;
6292;SDS011;3179;54.350;10.102;2023-09-08T01:07:16;3.63;;;3.33;;
6292;SDS011;3179;54.350;10.102;2023-09-08T01:09:45;4.30;;;4.00;;
6292;SDS011;3179;54.350;10.102;2023-09-08T01:12:12;3.90;;;3.60;;
6292;SDS011;3179;54.350;10.102;2023-09-08T01:14:39;4.00;;;3.70;;
6292;SDS011;3179;54.350;10.102;2023-09-08T01:17:06;4.10;;;3.73;;
6292;SDS011;3179;54.350;10.102;2023-09-08T01:19:33;4.50;;;4.10;;
6292;SDS011;3179;54.350;10.102;2023-09-08T01:22:20;3.80;;;3.50;;
6292;SDS011;3179;54.350;10.102;2023-09-08T01:25:01;3.87;;;3.57;;
6292;SDS011;3179;54.350;10.102;2023-09-08T01:27:37;4.20;;;3.90;;
6292;SDS011;3179;54.350;10.102;2023-09-08T01:30:07;4.40;;;4.00;;
6292;SDS011;3179;54.350;10.102;2023-09-08T01:32:34;4.10;;;3.70;;
6292;SDS011;3179;54.350;10.102;2023-09-08T01:35:01;4.63;;;4.23;;
6292;SDS011;3179;54.350;10.102;2023-09-08T01:37:29;5.33;;;3.67;;
6292;SDS011;3179;54.350;10.102;2023-09-08T01:39:55;4.07;;;3.77;;
6292;SDS011;3179;54.350;10.102;2023-09-08T01:42:24;4.33;;;3.93;;
6292;SDS011;3179;54.350;10.102;2023-09-08T01:44:50;6.50;;;4.20;;
6292;SDS011;3179;54.350;10.102;2023-09-08T01:47:17;4.20;;;3.80;;
6292;SDS011;3179;54.350;10.102;2023-09-08T01:49:44;5.53;;;3.77;;
6292;SDS011;3179;54.350;10.102;2023-09-08T01:52:11;4.43;;;4.03;;
6292;SDS011;3179;54.350;10.102;2023-09-08T01:54:38;4.00;;;3.67;;
6292;SDS011;3179;54.350;10.102;2023-09-08T01:57:04;4.67;;;4.27;;
6292;SDS011;3179;54.350;10.102;2023-09-08T01:59:33;5.07;;;4.57;;
6292;SDS011;3179;54.350;10.102;2023-09-08T02:01:59;4.27;;;3.87;;
6292;SDS011;3179;54.350;10.102;2023-09-08T02:04:26;5.47;;;4.33;;
6292;SDS011;3179;54.350;10.102;2023-09-08T02:06:53;5.10;;;4.60;;
6292;SDS011;3179;54.350;10.102;2023-09-08T02:09:20;4.10;;;3.70;;
6292;SDS011;3179;54.350;10.102;2023-09-08T02:11:47;4.13;;;3.83;;
6292;SDS011;3179;54.350;10.102;2023-09-08T02:14:13;4.33;;;3.93;;
6292;SDS011;3179;54.350;10.102;2023-09-08T02:22:56;5.10;;;4.00;;
6292;SDS011;3179;54.350;10.102;2023-09-08T02:25:24;4.20;;;3.90;;
6292;SDS011;3179;54.350;10.102;2023-09-08T02:27:50;4.50;;;4.10;;
6292;SDS011;3179;54.350;10.102;2023-09-08T02:30:17;4.27;;;3.87;;
6292;SDS011;3179;54.350;10.102;2023-09-08T02:32:44;4.43;;;3.60;;
6292;SDS011;3179;54.350;10.102;2023-09-08T02:35:11;4.27;;;3.97;;
6292;SDS011;3179;54.350;10.102;2023-09-08T02:37:39;4.80;;;4.30;;
6292;SDS011;3179;54.350;10.102;2023-09-08T02:40:06;4.43;;;4.03;;
6292;SDS011;3179;54.350;10.102;2023-09-08T02:42:33;4.87;;;4.43;;
6292;SDS011;3179;54.350;10.102;2023-09-08T02:45:00;5.23;;;3.90;;
6292;SDS011;3179;54.350;10.102;2023-09-08T02:47:27;5.23;;;4.50;;
6292;SDS011;3179;54.350;10.102;2023-09-08T02:49:54;5.70;;;4.73;;
6292;SDS011;3179;54.350;10.102;2023-09-08T02:52:22;4.27;;;3.73;;
6292;SDS011;3179;54.350;10.102;2023-09-08T02:54:50;4.77;;;4.37;;
6292;SDS011;3179;54.350;10.102;2023-09-08T02:57:16;5.97;;;4.90;;
6292;SDS011;3179;54.350;10.102;2023-09-08T02:59:48;5.10;;;4.60;;
6292;SDS011;3179;54.350;10.102;2023-09-08T03:02:15;4.67;;;4.27;;
6292;SDS011;3179;54.350;10.102;2023-09-08T03:04:42;4.13;;;3.83;;
6292;SDS011;3179;54.350;10.102;2023-09-08T03:07:09;4.30;;;3.90;;
6292;SDS011;3179;54.350;10.102;2023-09-08T03:09:36;4.80;;;4.40;;
6292;SDS011;3179;54.350;10.102;2023-09-08T03:12:04;5.30;;;4.90;;
6292;SDS011;3179;54.350;10.102;2023-09-08T03:14:31;4.40;;;4.00;;
6292;SDS011;3179;54.350;10.102;2023-09-08T03:16:58;4.77;;;4.37;;
6292;SDS011;3179;54.350;10.102;2023-09-08T03:19:24;4.90;;;4.43;;
6292;SDS011;3179;54.350;10.102;2023-09-08T03:21:51;4.40;;;4.00;;
6292;SDS011;3179;54.350;10.102;2023-09-08T03:24:18;4.73;;;4.33;;
6292;SDS011;3179;54.350;10.102;2023-09-08T03:26:45;5.00;;;4.50;;
6292;SDS011;3179;54.350;10.102;2023-09-08T03:29:13;4.93;;;4.50;;
6292;SDS011;3179;54.350;10.102;2023-09-08T03:31:39;5.00;;;4.60;;
6292;SDS011;3179;54.350;10.102;2023-09-08T03:34:06;5.87;;;5.27;;
6292;SDS011;3179;54.350;10.102;2023-09-08T03:36:33;4.60;;;4.20;;
6292;SDS011;3179;54.350;10.102;2023-09-08T03:39:01;5.40;;;4.57;;
6292;SDS011;3179;54.350;10.102;2023-09-08T03:41:28;5.13;;;4.63;;
6292;SDS011;3179;54.350;10.102;2023-09-08T03:43:55;5.40;;;4.90;;
6292;SDS011;3179;54.350;10.102;2023-09-08T03:46:23;5.43;;;4.93;;
6292;SDS011;3179;54.350;10.102;2023-09-08T03:48:50;6.67;;;4.60;;
6292;SDS011;3179;54.350;10.102;2023-09-08T03:51:17;5.90;;;4.70;;
6292;SDS011;3179;54.350;10.102;2023-09-08T03:53:44;6.67;;;4.63;;
6292;SDS011;3179;54.350;10.102;2023-09-08T03:56:11;4.67;;;4.30;;
6292;SDS011;3179;54.350;10.102;2023-09-08T03:58:37;5.07;;;4.67;;
6292;SDS011;3179;54.350;10.102;2023-09-08T04:01:04;4.93;;;4.53;;
6292;SDS011;3179;54.350;10.102;2023-09-08T04:03:32;6.10;;;5.50;;
6292;SDS011;3179;54.350;10.102;2023-09-08T04:06:00;5.13;;;4.67;;
6292;SDS011;3179;54.350;10.102;2023-09-08T04:08:27;4.23;;;3.90;;
6292;SDS011;3179;54.350;10.102;2023-09-08T04:10:54;4.87;;;4.43;;
6292;SDS011;3179;54.350;10.102;2023-09-08T04:13:20;4.57;;;4.17;;
6292;SDS011;3179;54.350;10.102;2023-09-08T04:15:47;4.87;;;4.47;;
6292;SDS011;3179;54.350;10.102;2023-09-08T04:18:14;5.80;;;4.60;;
6292;SDS011;3179;54.350;10.102;2023-09-08T04:20:42;4.70;;;4.37;;
6292;SDS011;3179;54.350;10.102;2023-09-08T04:23:09;4.77;;;4.33;;
6292;SDS011;3179;54.350;10.102;2023-09-08T04:25:36;4.97;;;4.57;;
6292;SDS011;3179;54.350;10.102;2023-09-08T04:28:03;5.53;;;4.87;;
6292;SDS011;3179;54.350;10.102;2023-09-08T04:30:30;5.57;;;5.07;;
6292;SDS011;3179;54.350;10.102;2023-09-08T04:32:56;5.60;;;5.00;;
6292;SDS011;3179;54.350;10.102;2023-09-08T04:35:23;4.77;;;4.37;;
6292;SDS011;3179;54.350;10.102;2023-09-08T04:37:51;5.17;;;4.67;;
6292;SDS011;3179;54.350;10.102;2023-09-08T04:40:18;4.60;;;4.20;;
6292;SDS011;3179;54.350;10.102;2023-09-08T04:42:45;7.33;;;4.73;;
6292;SDS011;3179;54.350;10.102;2023-09-08T04:45:12;5.03;;;4.60;;
6292;SDS011;3179;54.350;10.102;2023-09-08T04:47:39;6.07;;;5.20;;
6292;SDS011;3179;54.350;10.102;2023-09-08T04:50:06;5.73;;;5.23;;
6292;SDS011;3179;54.350;10.102;2023-09-08T04:52:33;4.67;;;4.27;;
6292;SDS011;3179;54.350;10.102;2023-09-08T04:55:01;5.50;;;5.00;;
6292;SDS011;3179;54.350;10.102;2023-09-08T04:57:28;5.43;;;4.13;;
6292;SDS011;3179;54.350;10.102;2023-09-08T04:59:55;4.80;;;4.40;;
6292;SDS011;3179;54.350;10.102;2023-09-08T05:02:22;5.03;;;4.63;;
6292;SDS011;3179;54.350;10.102;2023-09-08T05:04:49;4.90;;;4.50;;
6292;SDS011;3179;54.350;10.102;2023-09-08T05:07:15;5.47;;;4.97;;
6292;SDS011;3179;54.350;10.102;2023-09-08T05:09:44;5.70;;;5.00;;
6292;SDS011;3179;54.350;10.102;2023-09-08T05:12:12;5.93;;;5.33;;
6292;SDS011;3179;54.350;10.102;2023-09-08T05:14:39;5.30;;;4.80;;
6292;SDS011;3179;54.350;10.102;2023-09-08T05:17:06;6.67;;;5.27;;
6292;SDS011;3179;54.350;10.102;2023-09-08T05:19:33;5.20;;;4.80;;
6292;SDS011;3179;54.350;10.102;2023-09-08T05:22:00;5.30;;;4.80;;
6292;SDS011;3179;54.350;10.102;2023-09-08T05:24:26;5.10;;;4.60;;
6292;SDS011;3179;54.350;10.102;2023-09-08T05:26:53;5.90;;;5.40;;
6292;SDS011;3179;54.350;10.102;2023-09-08T05:29:21;4.50;;;4.20;;
6292;SDS011;3179;54.350;10.102;2023-09-08T05:31:48;5.30;;;4.80;;
6292;SDS011;3179;54.350;10.102;2023-09-08T05:34:15;5.63;;;5.13;;
6292;SDS011;3179;54.350;10.102;2023-09-08T05:36:42;5.10;;;4.60;;
6292;SDS011;3179;54.350;10.102;2023-09-08T05:39:08;5.30;;;4.90;;
6292;SDS011;3179;54.350;10.102;2023-09-08T05:41:38;6.10;;;5.50;;
6292;SDS011;3179;54.350;10.102;2023-09-08T05:44:05;5.20;;;4.80;;
6292;SDS011;3179;54.350;10.102;2023-09-08T05:46:33;4.60;;;4.20;;
6292;SDS011;3179;54.350;10.102;2023-09-08T05:49:00;6.03;;;5.10;;
6292;SDS011;3179;54.350;10.102;2023-09-08T05:51:27;5.83;;;5.30;;
6292;SDS011;3179;54.350;10.102;2023-09-08T05:53:53;5.43;;;5.03;;
6292;SDS011;3179;54.350;10.102;2023-09-08T05:56:20;5.90;;;5.27;;
6292;SDS011;3179;54.350;10.102;2023-09-08T05:58:50;5.97;;;4.77;;
6292;SDS011;3179;54.350;10.102;2023-09-08T06:01:17;5.30;;;4.90;;
6292;SDS011;3179;54.350;10.102;2023-09-08T06:03:45;4.87;;;4.47;;
6292;SDS011;3179;54.350;10.102;2023-09-08T06:06:12;6.13;;;4.60;;
6292;SDS011;3179;54.350;10.102;2023-09-08T06:08:39;5.07;;;4.63;;
6292;SDS011;3179;54.350;10.102;2023-09-08T06:11:05;6.00;;;5.23;;
6292;SDS011;3179;54.350;10.102;2023-09-08T06:13:32;6.97;;;5.20;;
6292;SDS011;3179;54.350;10.102;2023-09-08T06:15:59;5.00;;;4.43;;
6292;SDS011;3179;54.350;10.102;2023-09-08T06:18:27;5.40;;;4.70;;
6292;SDS011;3179;54.350;10.102;2023-09-08T06:20:56;5.10;;;4.60;;
6292;SDS011;3179;54.350;10.102;2023-09-08T06:23:23;5.47;;;4.90;;
6292;SDS011;3179;54.350;10.102;2023-09-08T06:25:50;5.37;;;4.90;;
6292;SDS011;3179;54.350;10.102;2023-09-08T06:28:24;5.20;;;4.73;;
6292;SDS011;3179;54.350;10.102;2023-09-08T06:30:50;5.47;;;4.97;;
6292;SDS011;3179;54.350;10.102;2023-09-08T06:33:17;4.53;;;4.20;;
6292;SDS011;3179;54.350;10.102;2023-09-08T06:35:46;5.33;;;4.90;;
6292;SDS011;3179;54.350;10.102;2023-09-08T06:38:14;5.20;;;4.80;;
6292;SDS011;3179;54.350;10.102;2023-09-08T06:40:44;4.53;;;4.10;;
6292;SDS011;3179;54.350;10.102;2023-09-08T06:43:21;5.57;;;4.57;;
6292;SDS011;3179;54.350;10.102;2023-09-08T06:45:54;5.37;;;4.87;;
6292;SDS011;3179;54.350;10.102;2023-09-08T06:48:21;5.33;;;4.80;;
6292;SDS011;3179;54.350;10.102;2023-09-08T06:50:48;5.00;;;4.50;;
6292;SDS011;3179;54.350;10.102;2023-09-08T06:53:26;7.43;;;4.83;;
6292;SDS011;3179;54.350;10.102;2023-09-08T06:56:00;5.13;;;4.60;;
6292;SDS011;3179;54.350;10.102;2023-09-08T06:58:27;5.37;;;4.97;;
6292;SDS011;3179;54.350;10.102;2023-09-08T07:00:54;5.43;;;5.00;;
6292;SDS011;3179;54.350;10.102;2023-09-08T07:03:20;5.00;;;4.30;;
6292;SDS011;3179;54.350;10.102;2023-09-08T07:05:49;4.63;;;4.17;;
6292;SDS011;3179;54.350;10.102;2023-09-08T07:08:16;5.77;;;4.80;;
6292;SDS011;3179;54.350;10.102;2023-09-08T07:10:45;5.13;;;4.73;;
6292;SDS011;3179;54.350;10.102;2023-09-08T07:13:17;4.60;;;4.20;;
6292;SDS011;3179;54.350;10.102;2023-09-08T07:15:44;5.17;;;4.70;;
6292;SDS011;3179;54.350;10.102;2023-09-08T07:18:11;5.33;;;4.83;;
6292;SDS011;3179;54.350;10.102;2023-09-08T07:20:37;5.70;;;5.20;;
6292;SDS011;3179;54.350;10.102;2023-09-08T07:23:05;6.10;;;5.50;;
6292;SDS011;3179;54.350;10.102;2023-09-08T07:25:32;5.67;;;5.03;;
6292;SDS011;3179;54.350;10.102;2023-09-08T07:28:00;6.77;;;5.30;;
6292;SDS011;3179;54.350;10.102;2023-09-08T07:30:27;5.73;;;5.20;;
6292;SDS011;3179;54.350;10.102;2023-09-08T07:32:54;5.27;;;4.77;;
6292;SDS011;3179;54.350;10.102;2023-09-08T07:35:23;6.57;;;5.97;;
6292;SDS011;3179;54.350;10.102;2023-09-08T07:37:49;6.90;;;5.20;;
6292;SDS011;3179;54.350;10.102;2023-09-08T07:40:16;6.53;;;5.13;;
6292;SDS011;3179;54.350;10.102;2023-09-08T07:42:43;7.13;;;5.50;;
6292;SDS011;3179;54.350;10.102;2023-09-08T07:45:11;6.43;;;4.80;;
6292;SDS011;3179;54.350;10.102;2023-09-08T07:47:38;11.37;;;5.83;;
6292;SDS011;3179;54.350;10.102;2023-09-08T07:50:17;5.50;;;4.90;;
6292;SDS011;3179;54.350;10.102;2023-09-08T07:52:46;5.27;;;4.77;;
6292;SDS011;3179;54.350;10.102;2023-09-08T07:55:13;6.83;;;5.10;;
6292;SDS011;3179;54.350;10.102;2023-09-08T07:57:41;5.27;;;4.83;;
6292;SDS011;3179;54.350;10.102;2023-09-08T08:00:08;6.50;;;5.87;;
6292;SDS011;3179;54.350;10.102;2023-09-08T08:02:38;5.97;;;5.40;;
6292;SDS011;3179;54.350;10.102;2023-09-08T08:05:12;5.40;;;4.90;;
6292;SDS011;3179;54.350;10.102;2023-09-08T08:07:39;6.63;;;5.93;;
6292;SDS011;3179;54.350;10.102;2023-09-08T08:10:06;7.70;;;5.43;;
6292;SDS011;3179;54.350;10.102;2023-09-08T08:12:34;7.53;;;6.40;;
6292;SDS011;3179;54.350;10.102;2023-09-08T08:15:01;5.33;;;4.80;;
6292;SDS011;3179;54.350;10.102;2023-09-08T08:17:29;5.60;;;5.07;;
6292;SDS011;3179;54.350;10.102;2023-09-08T08:19:57;4.40;;;4.10;;
6292;SDS011;3179;54.350;10.102;2023-09-08T08:22:28;6.30;;;3.90;;
6292;SDS011;3179;54.350;10.102;2023-09-08T08:24:55;4.97;;;4.53;;
6292;SDS011;3179;54.350;10.102;2023-09-08T08:27:22;4.90;;;4.40;;
6292;SDS011;3179;54.350;10.102;2023-09-08T08:29:48;5.70;;;5.10;;
6292;SDS011;3179;54.350;10.102;2023-09-08T08:32:16;8.50;;;4.43;;
6292;SDS011;3179;54.350;10.102;2023-09-08T08:34:42;6.50;;;5.00;;
6292;SDS011;3179;54.350;10.102;2023-09-08T08:37:11;6.20;;;4.93;;
6292;SDS011;3179;54.350;10.102;2023-09-08T08:39:38;5.87;;;4.93;;
6292;SDS011;3179;54.350;10.102;2023-09-08T08:42:06;4.97;;;4.47;;
6292;SDS011;3179;54.350;10.102;2023-09-08T08:44:34;5.30;;;4.80;;
6292;SDS011;3179;54.350;10.102;2023-09-08T08:47:01;15.60;;;5.47;;
6292;SDS011;3179;54.350;10.102;2023-09-08T08:49:28;4.83;;;4.43;;
6292;SDS011;3179;54.350;10.102;2023-09-08T08:51:57;9.80;;;4.50;;
6292;SDS011;3179;54.350;10.102;2023-09-08T08:54:27;10.33;;;5.10;;
6292;SDS011;3179;54.350;10.102;2023-09-08T08:56:54;7.60;;;4.90;;
6292;SDS011;3179;54.350;10.102;2023-09-08T08:59:21;5.23;;;4.73;;
6292;SDS011;3179;54.350;10.102;2023-09-08T09:01:48;4.90;;;4.50;;
6292;SDS011;3179;54.350;10.102;2023-09-08T09:04:15;5.23;;;4.80;;
6292;SDS011;3179;54.350;10.102;2023-09-08T09:06:42;8.17;;;5.43;;
6292;SDS011;3179;54.350;10.102;2023-09-08T09:09:09;7.60;;;5.80;;
6292;SDS011;3179;54.350;10.102;2023-09-08T09:11:37;6.30;;;5.27;;
6292;SDS011;3179;54.350;10.102;2023-09-08T09:14:05;5.80;;;5.00;;
6292;SDS011;3179;54.350;10.102;2023-09-08T09:16:36;8.27;;;5.30;;
6292;SDS011;3179;54.350;10.102;2023-09-08T09:19:05;5.87;;;4.60;;
6292;SDS011;3179;54.350;10.102;2023-09-08T09:21:40;7.03;;;4.90;;
6292;SDS011;3179;54.350;10.102;2023-09-08T09:24:13;5.70;;;4.77;;
6292;SDS011;3179;54.350;10.102;2023-09-08T09:26:41;7.63;;;5.67;;
6292;SDS011;3179;54.350;10.102;2023-09-08T09:29:11;7.60;;;5.13;;
6292;SDS011;3179;54.350;10.102;2023-09-08T09:31:43;5.57;;;5.07;;
6292;SDS011;3179;54.350;10.102;2023-09-08T09:34:17;6.23;;;5.40;;
6292;SDS011;3179;54.350;10.102;2023-09-08T09:36:45;7.43;;;5.10;;
6292;SDS011;3179;54.350;10.102;2023-09-08T09:39:15;4.80;;;4.40;;
6292;SDS011;3179;54.350;10.102;2023-09-08T09:41:44;5.10;;;4.60;;
6292;SDS011;3179;54.350;10.102;2023-09-08T09:44:11;5.33;;;4.83;;
6292;SDS011;3179;54.350;10.102;2023-09-08T09:46:38;5.87;;;4.60;;
6292;SDS011;3179;54.350;10.102;2023-09-08T09:49:09;6.13;;;4.80;;
6292;SDS011;3179;54.350;10.102;2023-09-08T09:51:39;4.50;;;4.10;;
6292;SDS011;3179;54.350;10.102;2023-09-08T09:54:07;5.63;;;5.03;;
6292;SDS011;3179;54.350;10.102;2023-09-08T09:56:34;4.60;;;4.20;;
6292;SDS011;3179;54.350;10.102;2023-09-08T09:59:05;5.90;;;4.50;;
6292;SDS011;3179;54.350;10.102;2023-09-08T10:01:34;5.30;;;4.80;;
6292;SDS011;3179;54.350;10.102;2023-09-08T10:04:01;4.40;;;3.93;;
6292;SDS011;3179;54.350;10.102;2023-09-08T10:06:30;4.87;;;4.30;;
6292;SDS011;3179;54.350;10.102;2023-09-08T10:08:58;5.10;;;4.57;;
6292;SDS011;3179;54.350;10.102;2023-09-08T10:11:26;4.57;;;4.17;;
6292;SDS011;3179;54.350;10.102;2023-09-08T10:13:55;5.93;;;4.57;;
6292;SDS011;3179;54.350;10.102;2023-09-08T10:16:26;4.80;;;4.33;;
6292;SDS011;3179;54.350;10.102;2023-09-08T10:18:54;4.63;;;4.23;;
6292;SDS011;3179;54.350;10.102;2023-09-08T10:21:25;4.60;;;4.20;;
6292;SDS011;3179;54.350;10.102;2023-09-08T10:23:54;6.53;;;3.70;;
6292;SDS011;3179;54.350;10.102;2023-09-08T10:26:26;8.43;;;4.20;;
6292;SDS011;3179;54.350;10.102;2023-09-08T10:28:55;4.40;;;4.00;;
6292;SDS011;3179;54.350;10.102;2023-09-08T10:31:23;5.37;;;4.23;;
6292;SDS011;3179;54.350;10.102;2023-09-08T10:33:54;4.00;;;3.27;;
6292;SDS011;3179;54.350;10.102;2023-09-08T10:36:22;5.10;;;4.30;;
6292;SDS011;3179;54.350;10.102;2023-09-08T10:38:49;6.27;;;3.70;;
6292;SDS011;3179;54.350;10.102;2023-09-08T10:41:26;4.50;;;3.93;;
6292;SDS011;3179;54.350;10.102;2023-09-08T10:43:57;4.00;;;3.60;;
6292;SDS011;3179;54.350;10.102;2023-09-08T10:46:28;4.40;;;3.40;;
6292;SDS011;3179;54.350;10.102;2023-09-08T10:49:00;3.83;;;3.43;;
6292;SDS011;3179;54.350;10.102;2023-09-08T10:51:28;4.27;;;3.67;;
6292;SDS011;3179;54.350;10.102;2023-09-08T10:53:55;4.23;;;3.70;;
6292;SDS011;3179;54.350;10.102;2023-09-08T10:56:26;5.93;;;3.53;;
6292;SDS011;3179;54.350;10.102;2023-09-08T10:58:54;6.00;;;3.73;;
6292;SDS011;3179;54.350;10.102;2023-09-08T11:01:21;4.03;;;3.67;;
6292;SDS011;3179;54.350;10.102;2023-09-08T11:03:53;3.60;;;3.30;;
6292;SDS011;3179;54.350;10.102;2023-09-08T11:06:20;4.00;;;3.47;;
6292;SDS011;3179;54.350;10.102;2023-09-08T11:08:48;3.93;;;3.50;;
6292;SDS011;3179;54.350;10.102;2023-09-08T11:11:18;4.53;;;3.70;;
6292;SDS011;3179;54.350;10.102;2023-09-08T11:13:45;3.77;;;3.40;;
6292;SDS011;3179;54.350;10.102;2023-09-08T11:16:12;6.73;;;3.20;;
6292;SDS011;3179;54.350;10.102;2023-09-08T11:18:41;5.57;;;3.10;;
6292;SDS011;3179;54.350;10.102;2023-09-08T11:21:09;4.17;;;3.77;;
6292;SDS011;3179;54.350;10.102;2023-09-08T11:23:36;5.60;;;3.77;;
6292;SDS011;3179;54.350;10.102;2023-09-08T11:26:03;4.33;;;3.93;;
6292;SDS011;3179;54.350;10.102;2023-09-08T11:28:33;5.17;;;3.93;;
6292;SDS011;3179;54.350;10.102;2023-09-08T11:31:00;4.80;;;3.40;;
6292;SDS011;3179;54.350;10.102;2023-09-08T11:33:32;4.00;;;3.70;;
6292;SDS011;3179;54.350;10.102;2023-09-08T11:36:10;8.93;;;3.80;;
6292;SDS011;3179;54.350;10.102;2023-09-08T11:38:41;4.70;;;3.73;;
6292;SDS011;3179;54.350;10.102;2023-09-08T11:41:12;4.33;;;3.93;;
6292;SDS011;3179;54.350;10.102;2023-09-08T11:43:39;4.00;;;3.60;;
6292;SDS011;3179;54.350;10.102;2023-09-08T11:46:06;7.80;;;4.20;;
6292;SDS011;3179;54.350;10.102;2023-09-08T11:48:35;3.37;;;3.10;;
6292;SDS011;3179;54.350;10.102;2023-09-08T11:51:02;3.90;;;3.60;;
6292;SDS011;3179;54.350;10.102;2023-09-08T11:53:30;5.20;;;3.83;;
6292;SDS011;3179;54.350;10.102;2023-09-08T11:55:58;5.23;;;3.60;;
6292;SDS011;3179;54.350;10.102;2023-09-08T11:58:25;5.80;;;4.20;;
6292;SDS011;3179;54.350;10.102;2023-09-08T12:00:52;4.60;;;4.20;;
6292;SDS011;3179;54.350;10.102;2023-09-08T12:03:20;4.00;;;3.30;;
6292;SDS011;3179;54.350;10.102;2023-09-08T12:05:50;3.83;;;3.53;;
6292;SDS011;3179;54.350;10.102;2023-09-08T12:08:18;4.87;;;3.50;;
6292;SDS011;3179;54.350;10.102;2023-09-08T12:10:46;4.30;;;4.00;;
6292;SDS011;3179;54.350;10.102;2023-09-08T12:13:15;5.70;;;4.13;;
6292;SDS011;3179;54.350;10.102;2023-09-08T12:15:47;5.47;;;3.37;;
6292;SDS011;3179;54.350;10.102;2023-09-08T12:18:13;4.47;;;4.07;;
6292;SDS011;3179;54.350;10.102;2023-09-08T12:20:40;6.37;;;3.67;;
6292;SDS011;3179;54.350;10.102;2023-09-08T12:23:15;6.47;;;3.80;;
6292;SDS011;3179;54.350;10.102;2023-09-08T12:25:44;4.20;;;3.80;;
6292;SDS011;3179;54.350;10.102;2023-09-08T12:28:13;3.90;;;3.57;;
6292;SDS011;3179;54.350;10.102;2023-09-08T12:30:40;4.03;;;3.33;;
6292;SDS011;3179;54.350;10.102;2023-09-08T12:33:07;3.73;;;3.43;;
6292;SDS011;3179;54.350;10.102;2023-09-08T12:35:34;6.03;;;4.27;;
6292;SDS011;3179;54.350;10.102;2023-09-08T12:38:02;3.67;;;3.37;;
6292;SDS011;3179;54.350;10.102;2023-09-08T12:40:32;6.10;;;3.60;;
6292;SDS011;3179;54.350;10.102;2023-09-08T12:43:00;7.63;;;3.60;;
6292;SDS011;3179;54.350;10.102;2023-09-08T12:45:29;4.30;;;3.90;;
6292;SDS011;3179;54.350;10.102;2023-09-08T12:47:57;3.80;;;3.50;;
6292;SDS011;3179;54.350;10.102;2023-09-08T12:50:26;5.50;;;4.40;;
6292;SDS011;3179;54.350;10.102;2023-09-08T12:52:53;4.07;;;3.50;;
6292;SDS011;3179;54.350;10.102;2023-09-08T12:55:20;4.47;;;3.93;;
6292;SDS011;3179;54.350;10.102;2023-09-08T12:57:47;5.40;;;3.97;;
6292;SDS011;3179;54.350;10.102;2023-09-08T13:00:19;4.60;;;3.87;;
6292;SDS011;3179;54.350;10.102;2023-09-08T13:02:49;4.60;;;3.90;;
6292;SDS011;3179;54.350;10.102;2023-09-08T13:05:16;3.57;;;3.30;;
6292;SDS011;3179;54.350;10.102;2023-09-08T13:07:43;4.37;;;4.00;;
6292;SDS011;3179;54.350;10.102;2023-09-08T13:10:10;4.30;;;3.90;;
6292;SDS011;3179;54.350;10.102;2023-09-08T13:12:37;5.67;;;3.90;;
6292;SDS011;3179;54.350;10.102;2023-09-08T13:15:05;4.10;;;3.67;;
6292;SDS011;3179;54.350;10.102;2023-09-08T13:17:32;4.23;;;3.90;;
6292;SDS011;3179;54.350;10.102;2023-09-08T13:20:01;5.40;;;3.67;;
6292;SDS011;3179;54.350;10.102;2023-09-08T13:22:28;4.07;;;3.67;;
6292;SDS011;3179;54.350;10.102;2023-09-08T13:24:57;3.60;;;3.30;;
6292;SDS011;3179;54.350;10.102;2023-09-08T13:27:24;3.83;;;3.30;;
6292;SDS011;3179;54.350;10.102;2023-09-08T13:29:52;5.93;;;3.30;;
6292;SDS011;3179;54.350;10.102;2023-09-08T13:32:20;4.00;;;3.60;;
6292;SDS011;3179;54.350;10.102;2023-09-08T13:34:47;4.20;;;3.90;;
6292;SDS011;3179;54.350;10.102;2023-09-08T13:37:15;5.20;;;3.60;;
6292;SDS011;3179;54.350;10.102;2023-09-08T13:39:42;4.53;;;3.23;;
6292;SDS011;3179;54.350;10.102;2023-09-08T13:42:09;5.83;;;4.03;;
6292;SDS011;3179;54.350;10.102;2023-09-08T13:44:36;4.30;;;3.30;;
6292;SDS011;3179;54.350;10.102;2023-09-08T13:47:03;4.07;;;3.30;;
6292;SDS011;3179;54.350;10.102;2023-09-08T13:49:30;3.17;;;2.90;;
6292;SDS011;3179;54.350;10.102;2023-09-08T13:51:57;4.20;;;3.57;;
6292;SDS011;3179;54.350;10.102;2023-09-08T13:54:25;6.90;;;2.97;;
6292;SDS011;3179;54.350;10.102;2023-09-08T13:56:57;3.43;;;3.13;;
6292;SDS011;3179;54.350;10.102;2023-09-08T13:59:26;3.90;;;3.60;;
6292;SDS011;3179;54.350;10.102;2023-09-08T14:01:53;3.43;;;3.13;;
6292;SDS011;3179;54.350;10.102;2023-09-08T14:04:20;3.50;;;3.20;;
6292;SDS011;3179;54.350;10.102;2023-09-08T14:06:47;3.50;;;3.23;;
6292;SDS011;3179;54.350;10.102;2023-09-08T14:09:14;3.70;;;3.40;;
6292;SDS011;3179;54.350;10.102;2023-09-08T14:11:43;3.50;;;3.20;;
6292;SDS011;3179;54.350;10.102;2023-09-08T14:14:09;7.57;;;3.20;;
6292;SDS011;3179;54.350;10.102;2023-09-08T14:16:36;2.83;;;2.63;;
6292;SDS011;3179;54.350;10.102;2023-09-08T14:19:03;3.40;;;3.10;;
6292;SDS011;3179;54.350;10.102;2023-09-08T14:21:30;4.47;;;3.40;;
6292;SDS011;3179;54.350;10.102;2023-09-08T14:23:57;3.30;;;3.03;;
6292;SDS011;3179;54.350;10.102;2023-09-08T14:26:24;3.00;;;2.80;;
6292;SDS011;3179;54.350;10.102;2023-09-08T14:28:52;5.33;;;3.37;;
6292;SDS011;3179;54.350;10.102;2023-09-08T14:31:19;6.87;;;3.40;;
6292;SDS011;3179;54.350;10.102;2023-09-08T14:33:45;5.47;;;3.07;;
6292;SDS011;3179;54.350;10.102;2023-09-08T14:36:16;4.20;;;3.80;;
6292;SDS011;3179;54.350;10.102;2023-09-08T14:38:43;3.10;;;2.80;;
6292;SDS011;3179;54.350;10.102;2023-09-08T14:41:10;3.83;;;2.60;;
6292;SDS011;3179;54.350;10.102;2023-09-08T14:43:36;3.07;;;2.77;;
6292;SDS011;3179;54.350;10.102;2023-09-08T14:46:04;3.20;;;2.90;;
6292;SDS011;3179;54.350;10.102;2023-09-08T14:48:31;3.20;;;2.77;;
6292;SDS011;3179;54.350;10.102;2023-09-08T14:50:58;3.30;;;2.70;;
6292;SDS011;3179;54.350;10.102;2023-09-08T14:53:25;5.10;;;3.30;;
6292;SDS011;3179;54.350;10.102;2023-09-08T14:55:53;6.20;;;3.03;;
6292;SDS011;3179;54.350;10.102;2023-09-08T14:58:22;3.10;;;2.90;;
6292;SDS011;3179;54.350;10.102;2023-09-08T15:00:49;4.10;;;2.80;;
6292;SDS011;3179;54.350;10.102;2023-09-08T15:03:17;4.13;;;2.90;;
6292;SDS011;3179;54.350;10.102;2023-09-08T15:05:44;5.57;;;3.20;;
6292;SDS011;3179;54.350;10.102;2023-09-08T15:08:11;3.63;;;3.33;;
6292;SDS011;3179;54.350;10.102;2023-09-08T15:10:38;4.37;;;3.30;;